Hyattstown, Maryland
Current Conditions -  °F | °C
As of 8:35 AM on Friday 28 Nov 2014 (Local Time) from KGAI Reporting Station
Overcast Overcast  
Wind Chill: 27°   Ceiling: 3200
Heat Index: 32°   Visibility: 10mi
Dew Point: 21°   Wind: 5mph
Humidity: 64%   Direction: 330°NNW
Pressure: 30.31"   Gusts: NA
Location:  39.2617°N, 77.2734°W
Report Text: KGAI 281335Z 33004KT 10SM BKN032 BKN040 OVC060 00/M06 A3031 RMK AO1
Loading
Personal Weather Stations






























Interactive Weather Map New forecast layout! Learn more

10-Day Weather Forecast

Advertisements
Track Severe Weather on mobile